KBIL/BIL METAR and TAF weather

Enter ICAO airport designator
Station Type Date Time Source
KBIL METAR 2022/06/28 07:53 UTC NOAA

KBIL 280753Z 00000KT 10SM FEW100 18/09 A3013 RMK AO2 SLP170 T01780089


Station Type Date Time Source
KBIL Decoded METAR 2022/06/28 07:53 UTC NOAA

LOGAN INTERNATIONAL AIRPORT, MT, United States (KBIL) 45-49N 108-33W 1091M
Jun 28, 2022 - 03:53 AM EDT / 2022.06.28 0753 UTC
Wind: Calm:0
Visibility: 10 mile(s):0
Sky conditions: mostly clear
Temperature: 64.0 F (17.8 C)
Dew Point: 48.0 F (8.9 C)
Relative Humidity: 55%
Pressure (altimeter): 30.13 in. Hg (1020 hPa)
ob: KBIL 280753Z 00000KT 10SM FEW100 18/09 A3013 RMK AO2 SLP170 T01780089
cycle: 8

Station Type Date Time Source
KBIL TAF 2022/06/28 06:36 UTC NOAA

TAF KBIL 280532Z 2806/2906 VRB05KT P6SM FEW200
FM281100 24008KT P6SM SKC
FM281600 20011KT P6SM SKC
FM282300 28012G20KT P6SM VCTS SCT100CB BKN200

Example: see airport list